createdAt,value
2023-05-02T00:01:55.343Z,11.03
2023-05-02T00:04:22.921Z,10.98
2023-05-02T00:06:50.090Z,10.93
2023-05-02T00:09:17.170Z,10.88
2023-05-02T00:11:44.207Z,10.83
2023-05-02T00:14:11.258Z,10.78
2023-05-02T00:16:38.329Z,10.75
2023-05-02T00:19:05.401Z,10.70
2023-05-02T00:21:32.427Z,10.67
2023-05-02T00:24:00.067Z,10.62
2023-05-02T00:26:27.237Z,10.59
2023-05-02T00:28:54.252Z,10.54
2023-05-02T00:31:21.407Z,10.50
2023-05-02T00:33:48.491Z,10.47
2023-05-02T00:36:15.709Z,10.44
2023-05-02T00:38:42.735Z,10.41
2023-05-02T00:41:09.768Z,10.38
2023-05-02T00:43:36.789Z,10.34
2023-05-02T00:46:03.862Z,10.32
2023-05-02T00:48:30.873Z,10.28
2023-05-02T00:50:57.908Z,10.26
2023-05-02T00:53:24.942Z,10.22
2023-05-02T00:55:51.979Z,10.16
2023-05-02T00:58:19.037Z,10.12
2023-05-02T01:00:46.067Z,10.03
2023-05-02T01:03:13.165Z,9.99
2023-05-02T01:05:40.234Z,9.94
2023-05-02T01:08:07.270Z,9.88
2023-05-02T01:10:34.319Z,9.81
2023-05-02T01:13:01.358Z,9.76
2023-05-02T01:15:28.387Z,9.72
2023-05-02T01:17:55.440Z,9.68
2023-05-02T01:20:22.496Z,9.67
2023-05-02T01:22:49.533Z,9.65
2023-05-02T01:25:16.586Z,9.61
2023-05-02T01:27:43.630Z,9.57
2023-05-02T01:30:10.657Z,9.51
2023-05-02T01:32:37.860Z,9.50
2023-05-02T01:35:04.915Z,9.46
2023-05-02T01:37:31.955Z,9.44
2023-05-02T01:39:59.245Z,9.43
2023-05-02T01:42:26.465Z,9.42
2023-05-02T01:44:53.569Z,9.41
2023-05-02T01:47:20.711Z,9.40
2023-05-02T01:49:47.771Z,9.42
2023-05-02T01:52:14.778Z,9.41
2023-05-02T01:54:41.793Z,9.41
2023-05-02T01:57:08.813Z,9.41
2023-05-02T01:59:35.816Z,9.41
2023-05-02T02:02:02.838Z,9.41
2023-05-02T02:04:29.945Z,9.39
2023-05-02T02:06:57.027Z,9.39
2023-05-02T02:09:24.033Z,9.38
2023-05-02T02:11:51.070Z,9.35
2023-05-02T02:14:18.057Z,9.35
2023-05-02T02:16:45.168Z,9.32
2023-05-02T02:19:12.248Z,9.29
2023-05-02T02:21:39.305Z,9.28
2023-05-02T02:24:06.314Z,9.25
2023-05-02T02:26:33.321Z,9.22
2023-05-02T02:29:00.369Z,9.21
2023-05-02T02:31:27.538Z,9.17
2023-05-02T02:33:54.589Z,9.12
2023-05-02T02:36:21.579Z,9.07
2023-05-02T02:38:48.649Z,9.02
2023-05-02T02:41:15.698Z,8.98
2023-05-02T02:43:42.719Z,8.96
2023-05-02T02:46:09.818Z,8.94
2023-05-02T02:48:36.851Z,8.94
2023-05-02T02:51:03.911Z,8.92
2023-05-02T02:53:30.935Z,8.88
2023-05-02T02:55:57.999Z,8.84
2023-05-02T02:58:24.989Z,8.80
2023-05-02T03:00:51.993Z,8.75
2023-05-02T03:03:19.079Z,8.71
2023-05-02T03:05:46.193Z,8.68
2023-05-02T03:08:13.233Z,8.66
2023-05-02T03:10:40.267Z,8.64
2023-05-02T03:13:07.273Z,8.64
2023-05-02T03:15:34.289Z,8.62
2023-05-02T03:18:01.428Z,8.62
2023-05-02T03:20:28.423Z,8.63
2023-05-02T03:22:55.460Z,8.64
2023-05-02T03:25:23.426Z,8.65
2023-05-02T03:27:50.450Z,8.65
2023-05-02T03:30:17.483Z,8.67
2023-05-02T03:32:44.604Z,8.66
2023-05-02T03:35:11.677Z,8.66
2023-05-02T03:37:38.680Z,8.66
2023-05-02T03:40:05.710Z,8.64
2023-05-02T03:42:32.754Z,8.64
2023-05-02T03:44:59.753Z,8.64
2023-05-02T03:47:26.801Z,8.63
2023-05-02T03:49:53.907Z,8.62
2023-05-02T03:52:20.915Z,8.61
2023-05-02T03:54:47.962Z,8.60
2023-05-02T03:57:14.980Z,8.58
2023-05-02T03:59:42.016Z,8.55
2023-05-02T04:02:09.136Z,8.55
2023-05-02T04:04:36.297Z,8.51
2023-05-02T04:07:03.514Z,8.50
2023-05-02T04:09:30.523Z,8.49
2023-05-02T04:11:57.576Z,8.47
2023-05-02T04:14:24.620Z,8.44
2023-05-02T04:16:51.656Z,8.43
2023-05-02T04:19:18.685Z,8.41
2023-05-02T04:21:45.721Z,8.40
2023-05-02T04:24:12.746Z,8.39
2023-05-02T04:26:39.749Z,8.38
2023-05-02T04:29:06.750Z,8.38
2023-05-02T04:31:33.815Z,8.36
2023-05-02T04:34:00.879Z,8.36
2023-05-02T04:36:27.916Z,8.35
2023-05-02T04:38:54.926Z,8.35
2023-05-02T04:41:21.970Z,8.34
2023-05-02T04:43:48.983Z,8.33
2023-05-02T04:46:16.028Z,8.32
2023-05-02T04:48:43.137Z,8.32
2023-05-02T04:51:10.183Z,8.31
2023-05-02T04:53:37.216Z,8.32
2023-05-02T04:56:04.558Z,8.33
2023-05-02T04:58:31.606Z,8.33
2023-05-02T05:00:58.642Z,8.33
2023-05-02T05:03:25.847Z,8.35
2023-05-02T05:05:52.968Z,8.36
2023-05-02T05:08:19.969Z,8.37
2023-05-02T05:10:46.980Z,8.37
2023-05-02T05:13:14.075Z,8.39
2023-05-02T05:15:41.131Z,8.39
2023-05-02T05:18:08.206Z,8.39
2023-05-02T05:20:35.324Z,8.38
2023-05-02T05:23:02.355Z,8.38
2023-05-02T05:25:29.363Z,8.35
2023-05-02T05:27:56.409Z,8.33
2023-05-02T05:30:23.441Z,8.34
2023-05-02T05:32:50.481Z,8.33
2023-05-02T05:35:17.627Z,8.37
2023-05-02T05:37:44.632Z,8.38
2023-05-02T05:40:11.650Z,8.41
2023-05-02T05:42:38.692Z,8.46
2023-05-02T05:45:05.705Z,8.49
2023-05-02T05:47:32.925Z,8.53
2023-05-02T05:50:00.287Z,8.59
2023-05-02T05:52:27.588Z,8.62
2023-05-02T05:54:54.617Z,8.66
2023-05-02T05:57:21.635Z,8.69
2023-05-02T05:59:48.679Z,8.76
2023-05-02T06:02:15.737Z,8.82
2023-05-02T06:04:42.857Z,8.87
2023-05-02T06:07:09.920Z,8.94
2023-05-02T06:09:36.977Z,8.99
2023-05-02T06:12:04.048Z,9.04
2023-05-02T06:14:31.121Z,9.09
2023-05-02T06:16:58.144Z,9.14
2023-05-02T06:19:25.145Z,9.17
2023-05-02T06:21:52.178Z,9.22
2023-05-02T06:24:19.195Z,9.27
2023-05-02T06:26:46.466Z,9.31
2023-05-02T06:29:13.481Z,9.35
2023-05-02T06:31:40.603Z,9.41
2023-05-02T06:34:07.669Z,9.47
2023-05-02T06:36:34.972Z,9.53
2023-05-02T06:39:01.999Z,9.59
2023-05-02T06:41:29.025Z,9.68
2023-05-02T06:43:56.058Z,9.77
2023-05-02T06:46:23.145Z,9.84
2023-05-02T06:48:50.217Z,9.93
2023-05-02T06:51:17.215Z,10.02
2023-05-02T06:53:44.231Z,10.12
2023-05-02T06:56:11.252Z,10.22
2023-05-02T06:58:38.295Z,10.30
2023-05-02T07:01:05.346Z,10.39
2023-05-02T07:03:32.406Z,10.47
2023-05-02T07:05:59.531Z,10.58
2023-05-02T07:08:26.596Z,10.66
2023-05-02T07:10:53.611Z,10.76
2023-05-02T07:13:20.640Z,10.82
2023-05-02T07:15:47.652Z,10.92
2023-05-02T07:18:14.734Z,11.03
2023-05-02T07:20:41.832Z,11.15
2023-05-02T07:23:08.856Z,11.24
2023-05-02T07:25:35.888Z,11.35
2023-05-02T07:28:02.892Z,11.47
2023-05-02T07:30:29.959Z,11.60
2023-05-02T07:32:57.035Z,11.73
2023-05-02T07:35:24.066Z,11.85
2023-05-02T07:37:51.508Z,11.97
2023-05-02T07:40:18.556Z,12.08
2023-05-02T07:42:45.590Z,12.20
2023-05-02T07:45:12.821Z,12.33
2023-05-02T07:47:39.903Z,12.45
2023-05-02T07:50:06.988Z,12.60
2023-05-02T07:52:34.058Z,12.69
2023-05-02T07:55:01.257Z,12.80
2023-05-02T07:57:28.348Z,12.92
2023-05-02T07:59:55.366Z,13.02
2023-05-02T08:02:22.476Z,13.12
2023-05-02T08:04:49.572Z,13.22
2023-05-02T08:07:16.596Z,13.29
2023-05-02T08:09:43.653Z,13.36
2023-05-02T08:12:10.684Z,13.45
2023-05-02T08:14:37.715Z,13.56
2023-05-02T08:17:04.752Z,13.64
2023-05-02T08:19:31.812Z,13.73
2023-05-02T08:21:58.883Z,13.80
2023-05-02T08:24:25.899Z,13.85
2023-05-02T08:26:53.034Z,13.90
2023-05-02T08:29:20.066Z,13.94
2023-05-02T08:31:47.155Z,14.00
2023-05-02T08:34:14.268Z,14.04
2023-05-02T08:36:41.314Z,14.06
2023-05-02T08:39:08.338Z,14.06
2023-05-02T08:41:35.378Z,14.10
2023-05-02T08:44:02.433Z,14.15
2023-05-02T08:46:29.436Z,14.19
2023-05-02T08:48:56.495Z,14.23
2023-05-02T08:51:23.546Z,14.27
2023-05-02T08:53:50.592Z,14.30
2023-05-02T08:56:17.626Z,14.34
2023-05-02T08:58:44.620Z,14.37
2023-05-02T09:01:11.657Z,14.41
2023-05-02T09:03:38.737Z,14.47
2023-05-02T09:06:05.789Z,14.51
2023-05-02T09:08:32.838Z,14.51
2023-05-02T09:10:59.877Z,14.53
2023-05-02T09:13:26.900Z,14.56
2023-05-02T09:15:53.904Z,14.60
2023-05-02T09:18:20.913Z,14.66
2023-05-02T09:20:47.948Z,14.73
2023-05-02T09:23:14.966Z,14.76
2023-05-02T09:25:41.987Z,14.82
2023-05-02T09:28:09.014Z,14.86
2023-05-02T09:30:36.030Z,14.90
2023-05-02T09:33:03.222Z,14.94
2023-05-02T09:35:30.278Z,14.96
2023-05-02T09:37:57.327Z,15.01
2023-05-02T09:40:24.438Z,15.05
2023-05-02T09:42:51.540Z,15.13
2023-05-02T09:45:18.551Z,15.17
2023-05-02T09:47:45.731Z,15.19
2023-05-02T09:50:12.794Z,15.20
2023-05-02T09:52:39.827Z,15.24
2023-05-02T09:55:06.867Z,15.29
2023-05-02T09:57:33.892Z,15.31
2023-05-02T10:00:00.963Z,15.33
2023-05-02T10:02:28.092Z,15.36
2023-05-02T10:04:55.136Z,15.40
2023-05-02T10:07:22.159Z,15.46
2023-05-02T10:09:49.198Z,15.54
2023-05-02T10:12:16.241Z,15.59
2023-05-02T10:14:43.265Z,15.62
2023-05-02T10:17:10.302Z,15.70
2023-05-02T10:19:37.315Z,15.79
2023-05-02T10:22:04.339Z,15.87
2023-05-02T10:24:31.342Z,15.96
2023-05-02T10:26:58.454Z,16.04
2023-05-02T10:29:25.493Z,16.11
2023-05-02T10:31:52.570Z,16.22
2023-05-02T10:34:19.679Z,16.35
2023-05-02T10:36:46.689Z,16.48
2023-05-02T10:39:13.710Z,16.60
2023-05-02T10:41:40.704Z,16.75
2023-05-02T10:44:07.779Z,16.89
2023-05-02T10:46:34.948Z,17.03
2023-05-02T10:49:02.025Z,17.18
2023-05-02T10:51:29.052Z,17.33
2023-05-02T10:53:56.085Z,17.49
2023-05-02T10:56:23.118Z,17.60
2023-05-02T10:58:50.152Z,17.68
2023-05-02T11:01:17.437Z,17.81
2023-05-02T11:03:44.477Z,17.93
2023-05-02T11:06:11.568Z,18.04
2023-05-02T11:08:38.675Z,18.13
2023-05-02T11:11:05.680Z,18.21
2023-05-02T11:13:32.693Z,18.30
2023-05-02T11:15:59.720Z,18.37
2023-05-02T11:18:26.724Z,18.45
2023-05-02T11:20:53.717Z,18.50
2023-05-02T11:23:20.777Z,18.57
2023-05-02T11:25:47.904Z,18.59
2023-05-02T11:28:15.221Z,18.64
2023-05-02T11:30:42.279Z,18.67
2023-05-02T11:33:09.363Z,18.71
2023-05-02T11:35:37.534Z,18.81
2023-05-02T11:38:04.594Z,18.91
2023-05-02T11:40:31.614Z,19.02
2023-05-02T11:42:58.629Z,19.15
2023-05-02T11:45:25.667Z,19.32
2023-05-02T11:47:52.954Z,19.53
2023-05-02T11:50:19.983Z,19.76
2023-05-02T11:52:47.040Z,19.99
2023-05-02T11:55:14.032Z,20.21
2023-05-02T11:57:41.060Z,20.44
2023-05-02T12:00:08.136Z,20.59
2023-05-02T12:02:35.373Z,20.76
2023-05-02T12:05:02.714Z,20.93
2023-05-02T12:07:30.124Z,21.13
2023-05-02T12:09:57.204Z,21.28
2023-05-02T12:12:24.299Z,21.44
2023-05-02T12:14:51.418Z,21.60
2023-05-02T12:17:18.497Z,21.72
2023-05-02T12:19:45.528Z,21.83
2023-05-02T12:22:12.574Z,21.95
2023-05-02T12:24:39.610Z,22.06
2023-05-02T12:27:06.627Z,22.12
2023-05-02T12:29:33.613Z,22.20
2023-05-02T12:32:00.789Z,22.28
2023-05-02T12:34:27.949Z,22.38
2023-05-02T12:36:55.118Z,22.46
2023-05-02T12:39:22.158Z,22.46
2023-05-02T12:41:49.250Z,22.46
2023-05-02T12:44:16.279Z,22.39
2023-05-02T12:46:43.343Z,22.39
2023-05-02T12:49:10.400Z,22.40
2023-05-02T12:51:37.420Z,22.42
2023-05-02T12:54:04.488Z,22.46
2023-05-02T12:56:31.580Z,22.51
2023-05-02T12:58:58.573Z,22.56
2023-05-02T13:01:25.646Z,22.63
2023-05-02T13:03:52.687Z,22.70
2023-05-02T13:06:20.060Z,22.75
2023-05-02T13:08:47.108Z,22.82
2023-05-02T13:11:14.132Z,22.88
2023-05-02T13:13:41.150Z,22.94
2023-05-02T13:16:08.321Z,23.00
2023-05-02T13:18:35.448Z,23.09
2023-05-02T13:21:02.522Z,23.18
2023-05-02T13:23:29.576Z,23.26
2023-05-02T13:25:56.591Z,23.33
2023-05-02T13:28:23.630Z,23.40
2023-05-02T13:30:50.702Z,23.47
2023-05-02T13:33:17.748Z,23.54
2023-05-02T13:35:44.791Z,23.53
2023-05-02T13:38:11.837Z,23.47
2023-05-02T13:40:38.830Z,23.40
2023-05-02T13:43:05.831Z,23.30
2023-05-02T13:45:32.856Z,23.17
2023-05-02T13:47:59.850Z,23.05
2023-05-02T13:50:26.953Z,22.97
2023-05-02T13:52:53.982Z,22.86
2023-05-02T13:55:20.989Z,22.78
2023-05-02T13:57:48.025Z,22.68
2023-05-02T14:00:15.026Z,22.59
2023-05-02T14:02:42.177Z,22.51
2023-05-02T14:05:09.301Z,22.38
2023-05-02T14:07:36.312Z,22.29
2023-05-02T14:10:03.651Z,22.25
2023-05-02T14:12:30.932Z,22.23
2023-05-02T14:14:57.949Z,22.12
2023-05-02T14:17:25.345Z,22.07
2023-05-02T14:19:52.336Z,22.01
2023-05-02T14:22:19.385Z,21.96
2023-05-02T14:24:46.482Z,21.97
2023-05-02T14:27:13.492Z,21.95
2023-05-02T14:29:40.516Z,21.91
2023-05-02T14:32:07.587Z,21.93
2023-05-02T14:34:34.674Z,21.89
2023-05-02T14:37:01.683Z,21.89
2023-05-02T14:39:28.688Z,21.87
2023-05-02T14:41:55.734Z,21.83
2023-05-02T14:44:22.747Z,21.81
2023-05-02T14:46:49.789Z,21.80
2023-05-02T14:49:16.861Z,21.76
2023-05-02T14:51:43.917Z,21.71
2023-05-02T14:54:10.954Z,21.67
2023-05-02T14:56:38.012Z,21.63
2023-05-02T14:59:05.053Z,21.52
2023-05-02T15:01:32.126Z,21.43
2023-05-02T15:04:06.673Z,21.22
2023-05-02T15:06:34.846Z,20.83
2023-05-02T15:09:02.214Z,20.45
2023-05-02T15:11:29.236Z,19.96
2023-05-02T15:13:58.464Z,19.57
2023-05-02T15:16:26.224Z,19.18
2023-05-02T15:18:53.277Z,18.92
2023-05-02T15:21:20.526Z,18.68
2023-05-02T15:23:47.601Z,18.49
2023-05-02T15:26:14.687Z,18.31
2023-05-02T15:28:41.860Z,18.21
2023-05-02T15:31:08.911Z,18.08
2023-05-02T15:33:35.928Z,18.01
2023-05-02T15:36:03.085Z,18.03
2023-05-02T15:38:30.101Z,18.10
2023-05-02T15:40:57.125Z,18.21
2023-05-02T15:43:24.321Z,18.27
2023-05-02T15:45:51.380Z,18.35
2023-05-02T15:48:18.432Z,18.45
2023-05-02T15:50:45.456Z,18.54
2023-05-02T15:53:12.542Z,18.60
2023-05-02T15:55:39.592Z,18.71
2023-05-02T15:58:06.606Z,18.80
2023-05-02T16:00:33.685Z,18.88
2023-05-02T16:03:01.920Z,18.98
2023-05-02T16:05:30.737Z,19.04
2023-05-02T16:07:57.984Z,19.10
2023-05-02T16:10:25.038Z,19.19
2023-05-02T16:12:52.053Z,19.31
2023-05-02T16:15:19.077Z,19.44
2023-05-02T16:17:46.110Z,19.53
2023-05-02T16:20:13.252Z,19.59
2023-05-02T16:22:40.268Z,19.65
2023-05-02T16:25:07.507Z,19.68
2023-05-02T16:27:34.511Z,19.68
2023-05-02T16:30:01.705Z,19.63
2023-05-02T16:32:28.900Z,19.52
2023-05-02T16:34:55.947Z,19.41
2023-05-02T16:37:22.985Z,19.33
2023-05-02T16:39:50.001Z,19.24
2023-05-02T16:42:17.011Z,19.16
2023-05-02T16:44:44.072Z,19.08
2023-05-02T16:47:11.155Z,19.03
2023-05-02T16:49:38.183Z,18.94
2023-05-02T16:52:05.200Z,18.90
2023-05-02T16:54:32.600Z,18.87
2023-05-02T16:56:59.594Z,18.83
2023-05-02T16:59:26.607Z,18.81
2023-05-02T17:01:53.701Z,18.77
2023-05-02T17:04:20.776Z,18.74
2023-05-02T17:06:48.117Z,18.71
2023-05-02T17:09:15.274Z,18.66
2023-05-02T17:11:42.298Z,18.66
2023-05-02T17:14:09.330Z,18.67
2023-05-02T17:16:36.451Z,18.69
2023-05-02T17:19:03.489Z,18.65
2023-05-02T17:21:30.512Z,18.69
2023-05-02T17:23:57.506Z,18.70
2023-05-02T17:26:24.526Z,18.78
2023-05-02T17:28:51.553Z,18.90
2023-05-02T17:31:18.582Z,19.05
2023-05-02T17:33:45.706Z,19.18
2023-05-02T17:36:12.773Z,19.33
2023-05-02T17:38:39.805Z,19.49
2023-05-02T17:41:07.000Z,19.63
2023-05-02T17:43:33.994Z,19.74
2023-05-02T17:46:01.275Z,19.84
2023-05-02T17:48:28.407Z,19.92
2023-05-02T17:50:55.535Z,19.97
2023-05-02T17:53:22.556Z,20.04
2023-05-02T17:55:49.590Z,20.11
2023-05-02T17:58:16.617Z,20.18
2023-05-02T18:00:43.599Z,20.26
2023-05-02T18:03:10.747Z,20.36
2023-05-02T18:05:37.906Z,20.44
2023-05-02T18:08:05.000Z,20.54
2023-05-02T18:10:32.078Z,20.61
2023-05-02T18:12:59.145Z,20.67
2023-05-02T18:15:26.217Z,20.72
2023-05-02T18:17:53.297Z,20.76
2023-05-02T18:20:20.345Z,20.79
2023-05-02T18:22:47.398Z,20.77
2023-05-02T18:25:14.429Z,20.71
2023-05-02T18:27:41.472Z,20.58
2023-05-02T18:30:08.499Z,20.45
2023-05-02T18:32:37.336Z,20.27
2023-05-02T18:35:04.606Z,20.09
2023-05-02T18:37:31.810Z,19.92
2023-05-02T18:40:17.386Z,19.71
2023-05-02T18:42:44.657Z,19.54
2023-05-02T18:45:11.801Z,19.36
2023-05-02T18:47:38.833Z,19.20
2023-05-02T18:50:06.004Z,19.03
2023-05-02T18:52:33.021Z,18.86
2023-05-02T18:55:00.161Z,18.71
2023-05-02T18:57:27.271Z,18.55
2023-05-02T18:59:54.271Z,18.40
2023-05-02T19:02:21.350Z,18.27
2023-05-02T19:04:48.420Z,18.10
2023-05-02T19:07:15.426Z,17.96
2023-05-02T19:09:42.431Z,17.82
2023-05-02T19:12:09.457Z,17.69
2023-05-02T19:14:36.542Z,17.53
2023-05-02T19:17:03.528Z,17.41
2023-05-02T19:19:30.543Z,17.29
2023-05-02T19:21:57.580Z,17.15
2023-05-02T19:24:24.589Z,17.03
2023-05-02T19:26:51.613Z,16.93
2023-05-02T19:29:18.616Z,16.81
2023-05-02T19:31:45.684Z,16.69
2023-05-02T19:34:12.745Z,16.58
2023-05-02T19:36:39.782Z,16.49
2023-05-02T19:39:06.853Z,16.39
2023-05-02T19:41:33.904Z,16.30
2023-05-02T19:44:00.943Z,16.21
2023-05-02T19:46:28.026Z,16.12
2023-05-02T19:48:55.189Z,16.04
2023-05-02T19:51:22.211Z,15.96
2023-05-02T19:53:49.261Z,15.87
2023-05-02T19:56:16.289Z,15.80
2023-05-02T19:58:43.299Z,15.72
2023-05-02T20:01:10.370Z,15.66
2023-05-02T20:03:37.492Z,15.59
2023-05-02T20:06:04.651Z,15.52
2023-05-02T20:08:31.710Z,15.44
2023-05-02T20:10:58.727Z,15.39
2023-05-02T20:13:25.736Z,15.32
2023-05-02T20:15:52.761Z,15.26
2023-05-02T20:18:19.827Z,15.21
2023-05-02T20:20:46.835Z,15.14
2023-05-02T20:23:13.841Z,15.08
2023-05-02T20:25:42.578Z,15.02
2023-05-02T20:28:09.983Z,14.95
2023-05-02T20:30:37.022Z,14.90
2023-05-02T20:33:13.997Z,14.84
2023-05-02T20:35:42.371Z,14.76
2023-05-02T20:38:09.448Z,14.71
2023-05-02T20:40:36.466Z,14.65
2023-05-02T20:43:03.505Z,14.59
2023-05-02T20:45:30.564Z,14.51
2023-05-02T20:47:57.630Z,14.44
2023-05-02T20:50:24.701Z,14.38
2023-05-02T20:52:51.806Z,14.33
2023-05-02T20:55:18.828Z,14.27
2023-05-02T20:57:45.902Z,14.20
2023-05-02T21:00:12.967Z,14.13
2023-05-02T21:02:40.073Z,14.04
2023-05-02T21:05:07.184Z,13.95
2023-05-02T21:07:34.250Z,13.89
2023-05-02T21:10:01.661Z,13.79
2023-05-02T21:12:28.924Z,13.74
2023-05-02T21:14:55.960Z,13.68
2023-05-02T21:17:23.014Z,13.61
2023-05-02T21:19:50.080Z,13.56
2023-05-02T21:22:17.370Z,13.50
2023-05-02T21:24:44.504Z,13.42
2023-05-02T21:27:11.559Z,13.39
2023-05-02T21:29:38.602Z,13.35
2023-05-02T21:32:05.769Z,13.28
2023-05-02T21:34:32.941Z,13.25
2023-05-02T21:36:59.959Z,13.21
2023-05-02T21:39:27.043Z,13.15
2023-05-02T21:41:54.053Z,13.13
2023-05-02T21:44:21.072Z,13.09
2023-05-02T21:46:48.171Z,13.06
2023-05-02T21:49:15.206Z,13.02
2023-05-02T21:51:42.222Z,12.99
2023-05-02T21:54:09.279Z,12.94
2023-05-02T21:56:36.303Z,12.89
2023-05-02T21:59:03.396Z,12.85
2023-05-02T22:01:30.480Z,12.81
2023-05-02T22:03:57.535Z,12.78
2023-05-02T22:06:24.662Z,12.74
2023-05-02T22:08:51.789Z,12.71
2023-05-02T22:11:18.832Z,12.66
2023-05-02T22:13:45.875Z,12.63
2023-05-02T22:16:12.979Z,12.59
2023-05-02T22:18:40.050Z,12.54
2023-05-02T22:21:07.089Z,12.50
2023-05-02T22:23:34.627Z,12.44
2023-05-02T22:26:01.661Z,12.39
2023-05-02T22:28:28.703Z,12.35
2023-05-02T22:30:55.803Z,12.31
2023-05-02T22:33:22.843Z,12.24
2023-05-02T22:35:49.886Z,12.20
2023-05-02T22:38:16.953Z,12.14
2023-05-02T22:40:44.000Z,12.09
2023-05-02T22:43:11.815Z,12.05
2023-05-02T22:45:38.852Z,12.01
2023-05-02T22:48:05.969Z,11.95
2023-05-02T22:50:33.056Z,11.91
2023-05-02T22:53:00.122Z,11.85
2023-05-02T22:55:27.193Z,11.80
2023-05-02T22:57:54.267Z,11.75
2023-05-02T23:00:21.300Z,11.71
2023-05-02T23:02:48.446Z,11.66
2023-05-02T23:05:15.557Z,11.60
2023-05-02T23:07:42.599Z,11.56
2023-05-02T23:10:09.666Z,11.52
2023-05-02T23:12:36.701Z,11.49
2023-05-02T23:15:03.738Z,11.42
2023-05-02T23:17:30.827Z,11.37
2023-05-02T23:19:57.889Z,11.34
2023-05-02T23:22:24.946Z,11.29
2023-05-02T23:24:51.988Z,11.23
2023-05-02T23:27:19.260Z,11.19
2023-05-02T23:29:46.286Z,11.15
2023-05-02T23:32:13.307Z,11.10
2023-05-02T23:34:40.352Z,11.05
2023-05-02T23:37:07.393Z,11.03
2023-05-02T23:39:34.416Z,10.99
2023-05-02T23:42:01.480Z,10.95
2023-05-02T23:44:28.491Z,10.90
2023-05-02T23:46:55.567Z,10.88
2023-05-02T23:49:22.693Z,10.84
2023-05-02T23:51:49.751Z,10.80
2023-05-02T23:54:16.785Z,10.76
2023-05-02T23:56:43.828Z,10.73
2023-05-02T23:59:10.937Z,10.70
